Pagrindinis puslapis
METAR-TAF:

METAR-TAF

Oro uostai :

Kuenka, Ekvadoras

platuma: 02-53-22S, ilguma: 078-59-04W, Aukštis: 2532 m

Dabartinis oras

Ataskaita buvo paskelbta 1 valandą ir 3 minutes, ne 22:00 UTC
Vėjas 4 kt iš Pietvakarių
Temperatūra 17°C
Drėgmė 59%
Slėgis 1024 hPa
Matomumas 10 km arba daugiau
Apsiniaukę ne aukštis 4000 ft

METAR: SECU 282200Z 22004KT 9999 OVC040 17/09 Q1024

Laikas: 18:03 (23:03 UTC)


TAF: trūkstamas

Orai ataskaitas ir orų prognozės (METAR, TAF).

turimą stotys yra geltonos ir raudonos taškus žemėlapyje.

Perkelti pele per norėdami pamatyti stoties vardą.

Tada spustelėkite, norėdami matyti oro stebėjimo ir prognozės.

Norėdami pakeisti žemėlapį: spustelėkite ant žalios mygtukų su juodo kryžiaus žemyn,; žalią mygtuką su brūkšneliu, jei norite nutolinti; arba žalių rodyklių gretimoms žemėlapius.


METAR-TAF: